Terminal Aerodrome Forecast
Issued by NWS Tulsa, OK

Home | Current Version | Previous Version | Text Only | Print | Product List | Glossary On
Versions: 1 2 3 4 5 6 7 8 9 10 11 12 13 14 15 16 17 18
115
FTUS44 KTSA 271731
TAFTUL
TAF
KTUL 271731Z 2718/2818 34014KT P6SM OVC015
     FM272200 01010KT P6SM BKN025
     FM280200 03005KT P6SM BKN050
     FM280900 05005KT P6SM BKN200=

USA.gov is the U.S. government's official web portal to all federal, state and local government web resources and services.